sensor_id;sensor_type;location;lat;lon;timestamp;P1;durP1;ratioP1;P2;durP2;ratioP2
77170;SDS011;66144;50.020;14.422;2023-06-10T00:01:47;9.65;;;7.25;;
77170;SDS011;66144;50.020;14.422;2023-06-10T00:04:16;13.93;;;7.75;;
77170;SDS011;66144;50.020;14.422;2023-06-10T00:06:43;10.73;;;7.30;;
77170;SDS011;66144;50.020;14.422;2023-06-10T00:09:09;12.35;;;7.82;;
77170;SDS011;66144;50.020;14.422;2023-06-10T00:11:39;11.40;;;7.50;;
77170;SDS011;66144;50.020;14.422;2023-06-10T00:14:04;12.00;;;7.63;;
77170;SDS011;66144;50.020;14.422;2023-06-10T00:16:30;11.63;;;7.72;;
77170;SDS011;66144;50.020;14.422;2023-06-10T00:18:55;9.23;;;6.50;;
77170;SDS011;66144;50.020;14.422;2023-06-10T00:21:21;12.18;;;8.25;;
77170;SDS011;66144;50.020;14.422;2023-06-10T00:23:47;13.27;;;8.02;;
77170;SDS011;66144;50.020;14.422;2023-06-10T00:26:13;10.95;;;7.00;;
77170;SDS011;66144;50.020;14.422;2023-06-10T00:28:39;10.23;;;6.90;;
77170;SDS011;66144;50.020;14.422;2023-06-10T00:31:04;9.93;;;7.18;;
77170;SDS011;66144;50.020;14.422;2023-06-10T00:33:30;11.38;;;7.57;;
77170;SDS011;66144;50.020;14.422;2023-06-10T00:35:55;11.15;;;6.55;;
77170;SDS011;66144;50.020;14.422;2023-06-10T00:38:21;10.13;;;7.03;;
77170;SDS011;66144;50.020;14.422;2023-06-10T00:40:46;13.20;;;7.20;;
77170;SDS011;66144;50.020;14.422;2023-06-10T00:43:12;10.13;;;7.30;;
77170;SDS011;66144;50.020;14.422;2023-06-10T00:45:37;12.57;;;8.05;;
77170;SDS011;66144;50.020;14.422;2023-06-10T00:48:02;11.40;;;6.75;;
77170;SDS011;66144;50.020;14.422;2023-06-10T00:50:28;11.52;;;7.28;;
77170;SDS011;66144;50.020;14.422;2023-06-10T00:52:56;12.40;;;7.25;;
77170;SDS011;66144;50.020;14.422;2023-06-10T00:55:22;10.07;;;7.28;;
77170;SDS011;66144;50.020;14.422;2023-06-10T00:57:48;10.88;;;7.80;;
77170;SDS011;66144;50.020;14.422;2023-06-10T01:00:16;10.77;;;7.32;;
77170;SDS011;66144;50.020;14.422;2023-06-10T01:02:42;12.05;;;7.00;;
77170;SDS011;66144;50.020;14.422;2023-06-10T01:05:07;11.13;;;7.28;;
77170;SDS011;66144;50.020;14.422;2023-06-10T01:10:20;9.43;;;6.90;;
77170;SDS011;66144;50.020;14.422;2023-06-10T01:13:07;11.13;;;7.50;;
77170;SDS011;66144;50.020;14.422;2023-06-10T01:15:36;12.27;;;8.05;;
77170;SDS011;66144;50.020;14.422;2023-06-10T01:18:04;13.65;;;7.40;;
77170;SDS011;66144;50.020;14.422;2023-06-10T01:20:33;13.85;;;8.25;;
77170;SDS011;66144;50.020;14.422;2023-06-10T01:23:00;10.85;;;7.20;;
77170;SDS011;66144;50.020;14.422;2023-06-10T01:25:26;9.98;;;7.22;;
77170;SDS011;66144;50.020;14.422;2023-06-10T01:27:54;10.57;;;6.97;;
77170;SDS011;66144;50.020;14.422;2023-06-10T01:30:34;12.50;;;7.50;;
77170;SDS011;66144;50.020;14.422;2023-06-10T01:33:10;10.43;;;6.82;;
77170;SDS011;66144;50.020;14.422;2023-06-10T01:35:39;10.98;;;7.25;;
77170;SDS011;66144;50.020;14.422;2023-06-10T01:38:06;10.95;;;7.03;;
77170;SDS011;66144;50.020;14.422;2023-06-10T01:40:31;9.50;;;7.00;;
77170;SDS011;66144;50.020;14.422;2023-06-10T01:42:58;10.90;;;7.55;;
77170;SDS011;66144;50.020;14.422;2023-06-10T01:45:24;10.27;;;7.13;;
77170;SDS011;66144;50.020;14.422;2023-06-10T01:47:49;10.60;;;6.97;;
77170;SDS011;66144;50.020;14.422;2023-06-10T01:50:14;10.65;;;7.28;;
77170;SDS011;66144;50.020;14.422;2023-06-10T01:52:41;10.88;;;7.80;;
77170;SDS011;66144;50.020;14.422;2023-06-10T01:55:07;11.73;;;8.07;;
77170;SDS011;66144;50.020;14.422;2023-06-10T01:57:32;9.23;;;6.28;;
77170;SDS011;66144;50.020;14.422;2023-06-10T01:59:58;10.23;;;6.53;;
77170;SDS011;66144;50.020;14.422;2023-06-10T02:02:23;9.98;;;6.78;;
77170;SDS011;66144;50.020;14.422;2023-06-10T02:04:49;10.90;;;6.78;;
77170;SDS011;66144;50.020;14.422;2023-06-10T02:07:15;11.32;;;7.40;;
77170;SDS011;66144;50.020;14.422;2023-06-10T02:09:41;11.07;;;6.50;;
77170;SDS011;66144;50.020;14.422;2023-06-10T02:12:06;10.75;;;6.75;;
77170;SDS011;66144;50.020;14.422;2023-06-10T02:14:32;11.35;;;7.78;;
77170;SDS011;66144;50.020;14.422;2023-06-10T02:16:58;9.73;;;7.20;;
77170;SDS011;66144;50.020;14.422;2023-06-10T02:19:24;12.45;;;8.00;;
77170;SDS011;66144;50.020;14.422;2023-06-10T02:21:51;9.05;;;6.45;;
77170;SDS011;66144;50.020;14.422;2023-06-10T02:24:17;12.13;;;7.38;;
77170;SDS011;66144;50.020;14.422;2023-06-10T02:26:42;10.77;;;6.78;;
77170;SDS011;66144;50.020;14.422;2023-06-10T02:29:08;11.30;;;6.70;;
77170;SDS011;66144;50.020;14.422;2023-06-10T02:31:33;11.10;;;6.90;;
77170;SDS011;66144;50.020;14.422;2023-06-10T02:34:00;13.27;;;8.32;;
77170;SDS011;66144;50.020;14.422;2023-06-10T02:36:26;11.95;;;8.02;;
77170;SDS011;66144;50.020;14.422;2023-06-10T02:38:52;12.18;;;7.43;;
77170;SDS011;66144;50.020;14.422;2023-06-10T02:41:18;11.55;;;7.38;;
77170;SDS011;66144;50.020;14.422;2023-06-10T02:43:43;11.68;;;7.72;;
77170;SDS011;66144;50.020;14.422;2023-06-10T02:46:09;11.85;;;8.20;;
77170;SDS011;66144;50.020;14.422;2023-06-10T02:48:40;12.48;;;8.27;;
77170;SDS011;66144;50.020;14.422;2023-06-10T02:51:07;11.73;;;7.78;;
77170;SDS011;66144;50.020;14.422;2023-06-10T02:53:33;16.27;;;9.02;;
77170;SDS011;66144;50.020;14.422;2023-06-10T02:55:58;23.08;;;8.35;;
77170;SDS011;66144;50.020;14.422;2023-06-10T02:58:23;38.58;;;10.50;;
77170;SDS011;66144;50.020;14.422;2023-06-10T03:00:49;41.80;;;9.35;;
77170;SDS011;66144;50.020;14.422;2023-06-10T03:03:14;45.72;;;10.50;;
77170;SDS011;66144;50.020;14.422;2023-06-10T03:05:40;31.13;;;9.85;;
77170;SDS011;66144;50.020;14.422;2023-06-10T03:08:05;18.65;;;9.05;;
77170;SDS011;66144;50.020;14.422;2023-06-10T03:10:30;25.13;;;10.07;;
77170;SDS011;66144;50.020;14.422;2023-06-10T03:12:58;28.77;;;9.07;;
77170;SDS011;66144;50.020;14.422;2023-06-10T03:15:23;22.80;;;7.95;;
77170;SDS011;66144;50.020;14.422;2023-06-10T03:17:49;19.58;;;8.82;;
77170;SDS011;66144;50.020;14.422;2023-06-10T03:20:15;58.20;;;10.57;;
77170;SDS011;66144;50.020;14.422;2023-06-10T03:22:41;24.95;;;9.18;;
77170;SDS011;66144;50.020;14.422;2023-06-10T03:25:07;47.10;;;10.77;;
77170;SDS011;66144;50.020;14.422;2023-06-10T03:27:38;95.10;;;11.70;;
77170;SDS011;66144;50.020;14.422;2023-06-10T03:30:04;98.65;;;12.23;;
77170;SDS011;66144;50.020;14.422;2023-06-10T03:32:30;73.45;;;10.93;;
77170;SDS011;66144;50.020;14.422;2023-06-10T03:34:55;87.47;;;12.25;;
77170;SDS011;66144;50.020;14.422;2023-06-10T03:37:22;62.85;;;11.55;;
77170;SDS011;66144;50.020;14.422;2023-06-10T03:39:48;68.93;;;11.80;;
77170;SDS011;66144;50.020;14.422;2023-06-10T03:42:13;62.22;;;10.90;;
77170;SDS011;66144;50.020;14.422;2023-06-10T03:44:38;108.38;;;12.82;;
77170;SDS011;66144;50.020;14.422;2023-06-10T03:47:04;93.13;;;12.20;;
77170;SDS011;66144;50.020;14.422;2023-06-10T03:49:29;100.57;;;13.50;;
77170;SDS011;66144;50.020;14.422;2023-06-10T03:51:55;123.80;;;13.88;;
77170;SDS011;66144;50.020;14.422;2023-06-10T03:54:20;113.95;;;14.52;;
77170;SDS011;66144;50.020;14.422;2023-06-10T03:56:46;102.82;;;13.80;;
77170;SDS011;66144;50.020;14.422;2023-06-10T03:59:13;107.57;;;12.55;;
77170;SDS011;66144;50.020;14.422;2023-06-10T04:01:38;142.60;;;15.65;;
77170;SDS011;66144;50.020;14.422;2023-06-10T04:04:06;52.00;;;10.82;;
77170;SDS011;66144;50.020;14.422;2023-06-10T04:06:31;74.55;;;12.80;;
77170;SDS011;66144;50.020;14.422;2023-06-10T04:08:57;113.22;;;13.68;;
77170;SDS011;66144;50.020;14.422;2023-06-10T04:11:23;84.82;;;11.77;;
77170;SDS011;66144;50.020;14.422;2023-06-10T04:13:49;101.65;;;13.40;;
77170;SDS011;66144;50.020;14.422;2023-06-10T04:16:16;39.28;;;10.07;;
77170;SDS011;66144;50.020;14.422;2023-06-10T04:18:41;84.63;;;12.80;;
77170;SDS011;66144;50.020;14.422;2023-06-10T04:21:07;82.47;;;12.50;;
77170;SDS011;66144;50.020;14.422;2023-06-10T04:23:33;32.42;;;10.65;;
77170;SDS011;66144;50.020;14.422;2023-06-10T04:25:59;59.47;;;11.50;;
77170;SDS011;66144;50.020;14.422;2023-06-10T04:28:25;18.27;;;9.55;;
77170;SDS011;66144;50.020;14.422;2023-06-10T04:30:50;33.20;;;9.93;;
77170;SDS011;66144;50.020;14.422;2023-06-10T04:33:15;52.08;;;10.20;;
77170;SDS011;66144;50.020;14.422;2023-06-10T04:35:41;23.98;;;9.15;;
77170;SDS011;66144;50.020;14.422;2023-06-10T04:38:07;72.80;;;11.30;;
77170;SDS011;66144;50.020;14.422;2023-06-10T04:40:32;36.35;;;10.32;;
77170;SDS011;66144;50.020;14.422;2023-06-10T04:42:58;62.90;;;10.93;;
77170;SDS011;66144;50.020;14.422;2023-06-10T04:45:23;32.13;;;10.02;;
77170;SDS011;66144;50.020;14.422;2023-06-10T04:47:49;23.52;;;9.50;;
77170;SDS011;66144;50.020;14.422;2023-06-10T04:50:14;53.13;;;10.35;;
77170;SDS011;66144;50.020;14.422;2023-06-10T04:52:40;57.00;;;10.80;;
77170;SDS011;66144;50.020;14.422;2023-06-10T04:55:09;56.20;;;10.68;;
77170;SDS011;66144;50.020;14.422;2023-06-10T04:57:35;23.88;;;9.10;;
77170;SDS011;66144;50.020;14.422;2023-06-10T05:00:00;39.22;;;9.07;;
77170;SDS011;66144;50.020;14.422;2023-06-10T05:02:25;22.45;;;8.93;;
77170;SDS011;66144;50.020;14.422;2023-06-10T05:04:51;59.55;;;10.57;;
77170;SDS011;66144;50.020;14.422;2023-06-10T05:07:16;42.92;;;9.77;;
77170;SDS011;66144;50.020;14.422;2023-06-10T05:09:41;18.17;;;9.32;;
77170;SDS011;66144;50.020;14.422;2023-06-10T05:12:07;14.13;;;8.57;;
77170;SDS011;66144;50.020;14.422;2023-06-10T05:14:33;16.90;;;9.27;;
77170;SDS011;66144;50.020;14.422;2023-06-10T05:16:59;15.27;;;8.48;;
77170;SDS011;66144;50.020;14.422;2023-06-10T05:19:24;25.52;;;9.98;;
77170;SDS011;66144;50.020;14.422;2023-06-10T05:21:50;13.93;;;8.32;;
77170;SDS011;66144;50.020;14.422;2023-06-10T05:24:15;16.05;;;8.80;;
77170;SDS011;66144;50.020;14.422;2023-06-10T05:26:40;18.90;;;9.02;;
77170;SDS011;66144;50.020;14.422;2023-06-10T05:29:07;16.67;;;9.18;;
77170;SDS011;66144;50.020;14.422;2023-06-10T05:31:36;17.52;;;9.50;;
77170;SDS011;66144;50.020;14.422;2023-06-10T05:34:02;13.90;;;9.23;;
77170;SDS011;66144;50.020;14.422;2023-06-10T05:36:27;13.82;;;9.43;;
77170;SDS011;66144;50.020;14.422;2023-06-10T05:38:53;12.98;;;8.88;;
77170;SDS011;66144;50.020;14.422;2023-06-10T05:41:18;13.75;;;9.50;;
77170;SDS011;66144;50.020;14.422;2023-06-10T05:43:43;12.52;;;9.25;;
77170;SDS011;66144;50.020;14.422;2023-06-10T05:46:09;12.07;;;8.93;;
77170;SDS011;66144;50.020;14.422;2023-06-10T05:48:34;11.40;;;8.68;;
77170;SDS011;66144;50.020;14.422;2023-06-10T05:50:59;12.02;;;9.15;;
77170;SDS011;66144;50.020;14.422;2023-06-10T05:53:25;11.07;;;9.43;;
77170;SDS011;66144;50.020;14.422;2023-06-10T05:55:50;10.65;;;8.43;;
77170;SDS011;66144;50.020;14.422;2023-06-10T05:58:17;11.88;;;9.80;;
77170;SDS011;66144;50.020;14.422;2023-06-10T06:00:42;11.07;;;8.70;;
77170;SDS011;66144;50.020;14.422;2023-06-10T06:03:08;10.90;;;9.07;;
77170;SDS011;66144;50.020;14.422;2023-06-10T06:05:34;11.85;;;9.65;;
77170;SDS011;66144;50.020;14.422;2023-06-10T06:08:02;11.93;;;9.55;;
77170;SDS011;66144;50.020;14.422;2023-06-10T06:10:28;13.00;;;9.90;;
77170;SDS011;66144;50.020;14.422;2023-06-10T06:12:53;11.80;;;9.48;;
77170;SDS011;66144;50.020;14.422;2023-06-10T06:15:19;10.95;;;8.73;;
77170;SDS011;66144;50.020;14.422;2023-06-10T06:17:44;15.68;;;7.57;;
77170;SDS011;66144;50.020;14.422;2023-06-10T06:20:10;12.18;;;8.30;;
77170;SDS011;66144;50.020;14.422;2023-06-10T06:22:35;7.90;;;6.18;;
77170;SDS011;66144;50.020;14.422;2023-06-10T06:25:01;7.88;;;6.00;;
77170;SDS011;66144;50.020;14.422;2023-06-10T06:27:26;10.32;;;5.65;;
77170;SDS011;66144;50.020;14.422;2023-06-10T06:29:51;7.45;;;5.72;;
77170;SDS011;66144;50.020;14.422;2023-06-10T06:32:17;7.93;;;5.60;;
77170;SDS011;66144;50.020;14.422;2023-06-10T06:34:42;7.35;;;6.50;;
77170;SDS011;66144;50.020;14.422;2023-06-10T06:37:08;7.57;;;5.88;;
77170;SDS011;66144;50.020;14.422;2023-06-10T06:39:33;6.10;;;5.47;;
77170;SDS011;66144;50.020;14.422;2023-06-10T06:41:58;6.32;;;5.70;;
77170;SDS011;66144;50.020;14.422;2023-06-10T06:44:24;7.32;;;5.75;;
77170;SDS011;66144;50.020;14.422;2023-06-10T06:46:49;6.15;;;5.28;;
77170;SDS011;66144;50.020;14.422;2023-06-10T06:49:14;7.63;;;5.32;;
77170;SDS011;66144;50.020;14.422;2023-06-10T06:51:40;8.57;;;6.72;;
77170;SDS011;66144;50.020;14.422;2023-06-10T06:54:05;9.05;;;5.63;;
77170;SDS011;66144;50.020;14.422;2023-06-10T06:56:31;6.30;;;5.45;;
77170;SDS011;66144;50.020;14.422;2023-06-10T06:58:56;6.18;;;5.57;;
77170;SDS011;66144;50.020;14.422;2023-06-10T07:01:22;6.07;;;4.82;;
77170;SDS011;66144;50.020;14.422;2023-06-10T07:03:47;5.70;;;4.93;;
77170;SDS011;66144;50.020;14.422;2023-06-10T07:06:12;6.07;;;5.03;;
77170;SDS011;66144;50.020;14.422;2023-06-10T07:08:38;6.20;;;5.18;;
77170;SDS011;66144;50.020;14.422;2023-06-10T07:11:04;7.03;;;5.70;;
77170;SDS011;66144;50.020;14.422;2023-06-10T07:13:29;6.85;;;4.90;;
77170;SDS011;66144;50.020;14.422;2023-06-10T07:15:54;6.43;;;5.28;;
77170;SDS011;66144;50.020;14.422;2023-06-10T07:18:20;6.78;;;4.93;;
77170;SDS011;66144;50.020;14.422;2023-06-10T07:20:45;7.20;;;5.28;;
77170;SDS011;66144;50.020;14.422;2023-06-10T07:23:10;5.70;;;5.10;;
77170;SDS011;66144;50.020;14.422;2023-06-10T07:25:36;5.97;;;4.80;;
77170;SDS011;66144;50.020;14.422;2023-06-10T07:28:01;5.57;;;4.72;;
77170;SDS011;66144;50.020;14.422;2023-06-10T07:30:27;5.32;;;4.78;;
77170;SDS011;66144;50.020;14.422;2023-06-10T07:32:53;5.28;;;4.53;;
77170;SDS011;66144;50.020;14.422;2023-06-10T07:35:18;9.57;;;5.70;;
77170;SDS011;66144;50.020;14.422;2023-06-10T07:37:44;5.80;;;5.20;;
77170;SDS011;66144;50.020;14.422;2023-06-10T07:40:10;5.75;;;5.15;;
77170;SDS011;66144;50.020;14.422;2023-06-10T07:42:35;7.15;;;5.68;;
77170;SDS011;66144;50.020;14.422;2023-06-10T07:45:02;8.10;;;6.10;;
77170;SDS011;66144;50.020;14.422;2023-06-10T07:47:28;6.40;;;5.72;;
77170;SDS011;66144;50.020;14.422;2023-06-10T07:49:54;9.27;;;5.78;;
77170;SDS011;66144;50.020;14.422;2023-06-10T07:52:20;6.60;;;5.28;;
77170;SDS011;66144;50.020;14.422;2023-06-10T07:54:45;7.95;;;6.28;;
77170;SDS011;66144;50.020;14.422;2023-06-10T07:57:10;7.80;;;6.53;;
77170;SDS011;66144;50.020;14.422;2023-06-10T07:59:36;8.18;;;6.10;;
77170;SDS011;66144;50.020;14.422;2023-06-10T08:02:01;11.32;;;6.72;;
77170;SDS011;66144;50.020;14.422;2023-06-10T08:04:27;7.55;;;6.13;;
77170;SDS011;66144;50.020;14.422;2023-06-10T08:06:52;8.02;;;6.25;;
77170;SDS011;66144;50.020;14.422;2023-06-10T08:09:18;9.43;;;6.78;;
77170;SDS011;66144;50.020;14.422;2023-06-10T08:11:43;7.65;;;6.22;;
77170;SDS011;66144;50.020;14.422;2023-06-10T08:14:11;8.00;;;6.35;;
77170;SDS011;66144;50.020;14.422;2023-06-10T08:16:36;9.52;;;6.70;;
77170;SDS011;66144;50.020;14.422;2023-06-10T08:19:02;10.98;;;7.30;;
77170;SDS011;66144;50.020;14.422;2023-06-10T08:21:27;6.80;;;6.10;;
77170;SDS011;66144;50.020;14.422;2023-06-10T08:23:53;8.32;;;6.63;;
77170;SDS011;66144;50.020;14.422;2023-06-10T08:26:19;8.80;;;6.85;;
77170;SDS011;66144;50.020;14.422;2023-06-10T08:28:44;9.52;;;6.60;;
77170;SDS011;66144;50.020;14.422;2023-06-10T08:31:12;9.95;;;7.90;;
77170;SDS011;66144;50.020;14.422;2023-06-10T08:33:37;9.55;;;7.07;;
77170;SDS011;66144;50.020;14.422;2023-06-10T08:36:02;7.70;;;6.82;;
77170;SDS011;66144;50.020;14.422;2023-06-10T08:38:28;7.10;;;6.40;;
77170;SDS011;66144;50.020;14.422;2023-06-10T08:40:56;8.65;;;7.68;;
77170;SDS011;66144;50.020;14.422;2023-06-10T08:43:28;8.20;;;6.60;;
77170;SDS011;66144;50.020;14.422;2023-06-10T08:45:55;8.57;;;7.53;;
77170;SDS011;66144;50.020;14.422;2023-06-10T08:48:25;14.52;;;8.18;;
77170;SDS011;66144;50.020;14.422;2023-06-10T08:50:54;10.25;;;7.20;;
77170;SDS011;66144;50.020;14.422;2023-06-10T08:53:22;7.80;;;6.50;;
77170;SDS011;66144;50.020;14.422;2023-06-10T08:55:50;9.07;;;7.32;;
77170;SDS011;66144;50.020;14.422;2023-06-10T08:58:19;9.98;;;7.72;;
77170;SDS011;66144;50.020;14.422;2023-06-10T09:00:45;9.93;;;7.43;;
77170;SDS011;66144;50.020;14.422;2023-06-10T09:03:10;9.05;;;7.78;;
77170;SDS011;66144;50.020;14.422;2023-06-10T09:05:36;10.18;;;7.45;;
77170;SDS011;66144;50.020;14.422;2023-06-10T09:08:03;8.75;;;7.75;;
77170;SDS011;66144;50.020;14.422;2023-06-10T09:10:29;9.88;;;7.65;;
77170;SDS011;66144;50.020;14.422;2023-06-10T09:12:54;9.93;;;8.93;;
77170;SDS011;66144;50.020;14.422;2023-06-10T09:15:20;8.80;;;7.30;;
77170;SDS011;66144;50.020;14.422;2023-06-10T09:17:46;9.48;;;8.25;;
77170;SDS011;66144;50.020;14.422;2023-06-10T09:20:11;10.07;;;7.97;;
77170;SDS011;66144;50.020;14.422;2023-06-10T09:22:37;10.95;;;8.57;;
77170;SDS011;66144;50.020;14.422;2023-06-10T09:25:07;8.57;;;7.38;;
77170;SDS011;66144;50.020;14.422;2023-06-10T09:30:25;10.10;;;9.10;;
77170;SDS011;66144;50.020;14.422;2023-06-10T09:32:52;9.32;;;8.20;;
77170;SDS011;66144;50.020;14.422;2023-06-10T09:35:18;9.63;;;8.63;;
77170;SDS011;66144;50.020;14.422;2023-06-10T09:37:43;10.98;;;8.35;;
77170;SDS011;66144;50.020;14.422;2023-06-10T09:40:09;10.43;;;9.02;;
77170;SDS011;66144;50.020;14.422;2023-06-10T09:42:36;11.52;;;9.07;;
77170;SDS011;66144;50.020;14.422;2023-06-10T09:45:04;10.23;;;8.57;;
77170;SDS011;66144;50.020;14.422;2023-06-10T09:47:30;10.38;;;9.13;;
77170;SDS011;66144;50.020;14.422;2023-06-10T09:49:56;9.02;;;8.10;;
77170;SDS011;66144;50.020;14.422;2023-06-10T09:52:24;10.48;;;8.35;;
77170;SDS011;66144;50.020;14.422;2023-06-10T09:54:52;11.70;;;8.55;;
77170;SDS011;66144;50.020;14.422;2023-06-10T09:57:18;12.38;;;9.23;;
77170;SDS011;66144;50.020;14.422;2023-06-10T09:59:45;11.40;;;8.77;;
77170;SDS011;66144;50.020;14.422;2023-06-10T10:02:14;11.15;;;8.85;;
77170;SDS011;66144;50.020;14.422;2023-06-10T10:04:41;11.55;;;8.65;;
77170;SDS011;66144;50.020;14.422;2023-06-10T10:07:07;10.15;;;8.05;;
77170;SDS011;66144;50.020;14.422;2023-06-10T10:09:33;9.50;;;8.50;;
77170;SDS011;66144;50.020;14.422;2023-06-10T10:12:01;11.40;;;8.18;;
77170;SDS011;66144;50.020;14.422;2023-06-10T10:14:28;9.90;;;8.05;;
77170;SDS011;66144;50.020;14.422;2023-06-10T10:16:56;11.00;;;8.18;;
77170;SDS011;66144;50.020;14.422;2023-06-10T10:19:25;9.77;;;8.35;;
77170;SDS011;66144;50.020;14.422;2023-06-10T10:21:55;9.60;;;8.60;;
77170;SDS011;66144;50.020;14.422;2023-06-10T10:24:30;11.07;;;8.55;;
77170;SDS011;66144;50.020;14.422;2023-06-10T10:26:59;11.50;;;9.55;;
77170;SDS011;66144;50.020;14.422;2023-06-10T10:29:46;9.60;;;8.70;;
77170;SDS011;66144;50.020;14.422;2023-06-10T10:32:13;10.25;;;8.57;;
77170;SDS011;66144;50.020;14.422;2023-06-10T10:34:49;9.77;;;8.77;;
77170;SDS011;66144;50.020;14.422;2023-06-10T10:37:21;10.27;;;9.02;;
77170;SDS011;66144;50.020;14.422;2023-06-10T10:39:49;9.38;;;8.43;;
77170;SDS011;66144;50.020;14.422;2023-06-10T10:42:15;9.55;;;7.88;;
77170;SDS011;66144;50.020;14.422;2023-06-10T10:44:42;10.02;;;9.05;;
77170;SDS011;66144;50.020;14.422;2023-06-10T10:47:08;9.85;;;8.32;;
77170;SDS011;66144;50.020;14.422;2023-06-10T10:49:35;9.07;;;7.78;;
77170;SDS011;66144;50.020;14.422;2023-06-10T10:52:02;9.70;;;8.70;;
77170;SDS011;66144;50.020;14.422;2023-06-10T10:54:34;11.85;;;8.52;;
77170;SDS011;66144;50.020;14.422;2023-06-10T10:59:43;9.85;;;7.80;;
77170;SDS011;66144;50.020;14.422;2023-06-10T11:05:03;9.07;;;7.32;;
77170;SDS011;66144;50.020;14.422;2023-06-10T11:07:30;8.93;;;7.15;;
77170;SDS011;66144;50.020;14.422;2023-06-10T11:10:10;9.65;;;7.82;;
77170;SDS011;66144;50.020;14.422;2023-06-10T11:15:22;8.48;;;7.22;;
77170;SDS011;66144;50.020;14.422;2023-06-10T11:33:53;14.20;;;7.47;;
77170;SDS011;66144;50.020;14.422;2023-06-10T11:36:21;9.90;;;7.88;;
77170;SDS011;66144;50.020;14.422;2023-06-10T11:38:46;7.72;;;6.93;;
77170;SDS011;66144;50.020;14.422;2023-06-10T11:41:16;9.00;;;6.10;;
77170;SDS011;66144;50.020;14.422;2023-06-10T11:43:43;9.52;;;6.00;;
77170;SDS011;66144;50.020;14.422;2023-06-10T11:46:09;7.57;;;6.30;;
77170;SDS011;66144;50.020;14.422;2023-06-10T11:48:35;9.07;;;6.70;;
77170;SDS011;66144;50.020;14.422;2023-06-10T11:51:04;7.43;;;6.18;;
77170;SDS011;66144;50.020;14.422;2023-06-10T11:53:33;7.18;;;6.05;;
77170;SDS011;66144;50.020;14.422;2023-06-10T11:55:58;7.85;;;7.03;;
77170;SDS011;66144;50.020;14.422;2023-06-10T11:58:24;10.15;;;7.35;;
77170;SDS011;66144;50.020;14.422;2023-06-10T12:00:51;7.85;;;7.05;;
77170;SDS011;66144;50.020;14.422;2023-06-10T12:03:18;8.57;;;7.43;;
77170;SDS011;66144;50.020;14.422;2023-06-10T12:06:00;10.52;;;7.57;;
77170;SDS011;66144;50.020;14.422;2023-06-10T12:08:30;9.07;;;7.50;;
77170;SDS011;66144;50.020;14.422;2023-06-10T12:10:56;8.30;;;7.35;;
77170;SDS011;66144;50.020;14.422;2023-06-10T12:13:22;11.90;;;7.45;;
77170;SDS011;66144;50.020;14.422;2023-06-10T12:15:49;8.35;;;7.55;;
77170;SDS011;66144;50.020;14.422;2023-06-10T12:18:24;9.73;;;8.05;;
77170;SDS011;66144;50.020;14.422;2023-06-10T12:20:50;8.73;;;7.82;;
77170;SDS011;66144;50.020;14.422;2023-06-10T12:23:16;8.85;;;7.95;;
77170;SDS011;66144;50.020;14.422;2023-06-10T12:25:55;10.18;;;8.48;;
77170;SDS011;66144;50.020;14.422;2023-06-10T12:28:24;11.43;;;9.13;;
77170;SDS011;66144;50.020;14.422;2023-06-10T12:30:51;9.63;;;8.40;;
77170;SDS011;66144;50.020;14.422;2023-06-10T12:33:30;10.45;;;8.38;;
77170;SDS011;66144;50.020;14.422;2023-06-10T12:35:55;11.82;;;8.52;;
77170;SDS011;66144;50.020;14.422;2023-06-10T12:38:24;9.85;;;7.93;;
77170;SDS011;66144;50.020;14.422;2023-06-10T12:40:53;11.27;;;7.45;;
77170;SDS011;66144;50.020;14.422;2023-06-10T12:43:22;8.02;;;7.18;;
77170;SDS011;66144;50.020;14.422;2023-06-10T12:45:48;11.38;;;8.73;;
77170;SDS011;66144;50.020;14.422;2023-06-10T12:48:18;9.23;;;8.35;;
77170;SDS011;66144;50.020;14.422;2023-06-10T12:53:15;7.70;;;6.90;;
77170;SDS011;66144;50.020;14.422;2023-06-10T12:55:41;8.43;;;7.53;;
77170;SDS011;66144;50.020;14.422;2023-06-10T12:58:06;9.05;;;7.80;;
77170;SDS011;66144;50.020;14.422;2023-06-10T13:00:32;10.68;;;7.20;;
77170;SDS011;66144;50.020;14.422;2023-06-10T13:03:00;8.77;;;7.45;;
77170;SDS011;66144;50.020;14.422;2023-06-10T13:05:27;9.52;;;7.55;;
77170;SDS011;66144;50.020;14.422;2023-06-10T13:07:52;7.93;;;6.75;;
77170;SDS011;66144;50.020;14.422;2023-06-10T13:10:18;9.82;;;7.50;;
77170;SDS011;66144;50.020;14.422;2023-06-10T13:12:43;8.45;;;7.03;;
77170;SDS011;66144;50.020;14.422;2023-06-10T13:15:09;9.73;;;7.13;;
77170;SDS011;66144;50.020;14.422;2023-06-10T13:17:35;7.93;;;7.07;;
77170;SDS011;66144;50.020;14.422;2023-06-10T13:20:02;7.60;;;6.88;;
77170;SDS011;66144;50.020;14.422;2023-06-10T13:22:32;9.13;;;7.05;;
77170;SDS011;66144;50.020;14.422;2023-06-10T13:24:59;8.93;;;6.88;;
77170;SDS011;66144;50.020;14.422;2023-06-10T13:27:25;7.90;;;6.40;;
77170;SDS011;66144;50.020;14.422;2023-06-10T13:29:52;7.35;;;6.40;;
77170;SDS011;66144;50.020;14.422;2023-06-10T13:32:17;9.25;;;6.70;;
77170;SDS011;66144;50.020;14.422;2023-06-10T13:34:43;7.25;;;6.40;;
77170;SDS011;66144;50.020;14.422;2023-06-10T13:37:08;7.80;;;5.82;;
77170;SDS011;66144;50.020;14.422;2023-06-10T13:39:34;9.55;;;6.32;;
77170;SDS011;66144;50.020;14.422;2023-06-10T13:41:59;7.15;;;6.20;;
77170;SDS011;66144;50.020;14.422;2023-06-10T13:44:25;8.45;;;5.60;;
77170;SDS011;66144;50.020;14.422;2023-06-10T13:46:50;6.13;;;5.50;;
77170;SDS011;66144;50.020;14.422;2023-06-10T13:49:16;8.75;;;6.28;;
77170;SDS011;66144;50.020;14.422;2023-06-10T13:51:41;7.25;;;6.43;;
77170;SDS011;66144;50.020;14.422;2023-06-10T13:54:07;7.70;;;6.32;;
77170;SDS011;66144;50.020;14.422;2023-06-10T13:56:32;9.07;;;7.03;;
77170;SDS011;66144;50.020;14.422;2023-06-10T13:59:02;9.32;;;7.63;;
77170;SDS011;66144;50.020;14.422;2023-06-10T14:01:28;8.63;;;6.63;;
77170;SDS011;66144;50.020;14.422;2023-06-10T14:03:54;7.63;;;6.82;;
77170;SDS011;66144;50.020;14.422;2023-06-10T14:06:19;9.43;;;6.55;;
77170;SDS011;66144;50.020;14.422;2023-06-10T14:08:46;8.43;;;6.45;;
77170;SDS011;66144;50.020;14.422;2023-06-10T14:11:11;8.90;;;7.20;;
77170;SDS011;66144;50.020;14.422;2023-06-10T14:13:37;9.10;;;7.13;;
77170;SDS011;66144;50.020;14.422;2023-06-10T14:16:03;8.82;;;6.38;;
77170;SDS011;66144;50.020;14.422;2023-06-10T14:18:29;7.60;;;6.25;;
77170;SDS011;66144;50.020;14.422;2023-06-10T14:20:55;8.13;;;6.10;;
77170;SDS011;66144;50.020;14.422;2023-06-10T14:23:20;8.70;;;5.82;;
77170;SDS011;66144;50.020;14.422;2023-06-10T14:25:46;7.13;;;5.55;;
77170;SDS011;66144;50.020;14.422;2023-06-10T14:28:11;11.13;;;6.35;;
77170;SDS011;66144;50.020;14.422;2023-06-10T14:30:37;7.78;;;6.32;;
77170;SDS011;66144;50.020;14.422;2023-06-10T14:33:02;7.32;;;6.35;;
77170;SDS011;66144;50.020;14.422;2023-06-10T14:35:27;7.53;;;6.60;;
77170;SDS011;66144;50.020;14.422;2023-06-10T14:37:53;6.78;;;6.07;;
77170;SDS011;66144;50.020;14.422;2023-06-10T14:40:18;8.18;;;6.20;;
77170;SDS011;66144;50.020;14.422;2023-06-10T14:42:46;8.55;;;6.20;;
77170;SDS011;66144;50.020;14.422;2023-06-10T14:45:12;6.70;;;5.93;;
77170;SDS011;66144;50.020;14.422;2023-06-10T14:47:37;7.93;;;5.85;;
77170;SDS011;66144;50.020;14.422;2023-06-10T14:50:02;9.45;;;6.43;;
77170;SDS011;66144;50.020;14.422;2023-06-10T14:52:28;8.63;;;6.60;;
77170;SDS011;66144;50.020;14.422;2023-06-10T14:54:54;9.48;;;6.25;;